Time;durP1;ratioP1;P1;durP2;ratioP2;P2;SDS_P1;SDS_P2;PMS_P1;PMS_P2;Temp;Humidity;BMP_temperature;BMP_pressure;BME280_temperature;BME280_humidity;BME280_pressure;Samples;Min_cycle;Max_cycle;Signal;HPM_P1;HPM_P2
2022/04/15 00:01:54;;;;;;;;;;;8.90;99.90;;;;;;4992214;28;20401;-77
2022/04/15 00:04:22;;;;;;;;;;;8.90;99.90;;;;;;4988804;28;20423;-79
2022/04/15 00:06:49;;;;;;;;;;;8.80;99.90;;;;;;4994465;28;19925;-78
2022/04/15 00:09:16;;;;;;;;;;;8.80;99.90;;;;;;4996716;28;20342;-74
2022/04/15 00:11:44;;;;;;;;;;;8.80;99.90;;;;;;4988469;28;19934;-76
2022/04/15 00:14:11;;;;;;;;;;;8.80;99.90;;;;;;5002013;28;21717;-76
2022/04/15 00:16:38;;;;;;;;;;;8.80;99.90;;;;;;4988272;28;19949;-76
2022/04/15 00:19:04;;;;;;;;;;;8.80;99.90;;;;;;4988013;28;19926;-75
2022/04/15 00:21:32;;;;;;;;;;;8.90;99.90;;;;;;4994857;28;19984;-76
2022/04/15 00:23:59;;;;;;;;;;;8.90;99.90;;;;;;4992989;28;19926;-76
2022/04/15 00:26:26;;;;;;;;;;;8.90;99.90;;;;;;4996719;28;19926;-78
2022/04/15 00:28:53;;;;;;;;;;;8.90;99.90;;;;;;4994921;28;20012;-78
2022/04/15 00:31:20;;;;;;;;;;;8.90;99.90;;;;;;4989797;28;19932;-75
2022/04/15 00:33:46;;;;;;;;;;;8.90;99.90;;;;;;4992150;28;19933;-75
2022/04/15 00:36:13;;;;;;;;;;;8.90;99.90;;;;;;4987359;28;19934;-74
2022/04/15 00:38:41;;;;;;;;;;;8.90;99.90;;;;;;5014130;28;19926;-75
2022/04/15 00:41:07;;;;;;;;;;;8.90;99.90;;;;;;4989854;28;19925;-77
2022/04/15 00:43:34;;;;;;;;;;;8.90;99.90;;;;;;4989634;28;20020;-75
2022/04/15 00:46:07;;;;;;;;;;;8.90;99.90;;;;;;5001326;28;21600;-74
2022/04/15 00:48:34;;;;;;;;;;;8.80;99.90;;;;;;5002292;28;19961;-75
2022/04/15 00:51:02;;;;;;;;;;;8.80;99.90;;;;;;4998326;28;20395;-74
2022/04/15 00:53:30;;;;;;;;;;;8.80;99.90;;;;;;5001820;28;19924;-77
2022/04/15 00:56:01;;;;;;;;;;;8.70;99.90;;;;;;5000706;28;19930;-75
2022/04/15 00:58:28;;;;;;;;;;;8.60;99.90;;;;;;4994572;28;19933;-75
2022/04/15 01:00:56;;;;;;;;;;;8.60;99.90;;;;;;5011712;28;20388;-76
2022/04/15 01:03:23;;;;;;;;;;;8.60;99.90;;;;;;5003554;28;20116;-75
2022/04/15 01:05:50;;;;;;;;;;;8.60;99.90;;;;;;4997048;28;20462;-75
2022/04/15 01:08:24;;;;;;;;;;;8.60;99.90;;;;;;4990422;28;20468;-77
2022/04/15 01:11:01;;;;;;;;;;;8.60;99.90;;;;;;5002510;28;19924;-76
2022/04/15 01:13:32;;;;;;;;;;;8.60;99.90;;;;;;5020334;28;19948;-76
2022/04/15 01:15:59;;;;;;;;;;;8.60;99.90;;;;;;4998499;28;19957;-77
2022/04/15 01:18:26;;;;;;;;;;;8.50;99.90;;;;;;4990655;28;19982;-75
2022/04/15 01:20:53;;;;;;;;;;;8.30;99.90;;;;;;4993264;28;19930;-74
2022/04/15 01:23:21;;;;;;;;;;;8.40;99.90;;;;;;5007283;28;19924;-76
2022/04/15 01:25:48;;;;;;;;;;;8.50;99.90;;;;;;4991961;28;20009;-75
2022/04/15 01:28:17;;;;;;;;;;;8.50;99.90;;;;;;4987637;28;20021;-76
2022/04/15 01:30:45;;;;;;;;;;;8.50;99.90;;;;;;5003635;28;20438;-74
2022/04/15 01:33:12;;;;;;;;;;;8.40;99.90;;;;;;4990166;28;19926;-77
2022/04/15 01:35:38;;;;;;;;;;;8.40;99.90;;;;;;4998558;28;20016;-75
2022/04/15 01:38:07;;;;;;;;;;;8.40;99.90;;;;;;4988433;28;19926;-74
2022/04/15 01:40:42;;;;;;;;;;;8.40;99.90;;;;;;4980626;28;20386;-74
2022/04/15 01:43:09;;;;;;;;;;;8.40;99.90;;;;;;5003158;28;19979;-74
2022/04/15 01:45:35;;;;;;;;;;;8.30;99.90;;;;;;4995262;28;20401;-74
2022/04/15 01:48:04;;;;;;;;;;;8.30;99.90;;;;;;4988100;28;19926;-75
2022/04/15 01:50:31;;;;;;;;;;;8.30;99.90;;;;;;4985958;28;20443;-76
2022/04/15 01:52:58;;;;;;;;;;;8.30;99.90;;;;;;4987153;28;20383;-75
2022/04/15 01:55:25;;;;;;;;;;;8.30;99.90;;;;;;4986002;28;19930;-74
2022/04/15 01:57:53;;;;;;;;;;;8.20;99.90;;;;;;4988158;28;20470;-75
2022/04/15 02:00:19;;;;;;;;;;;8.20;99.90;;;;;;4993673;28;19926;-76
2022/04/15 02:02:46;;;;;;;;;;;8.20;99.90;;;;;;4999262;28;20601;-75
2022/04/15 02:05:13;;;;;;;;;;;8.20;99.90;;;;;;4997741;28;19934;-75
2022/04/15 02:07:42;;;;;;;;;;;8.20;99.90;;;;;;4975071;28;19925;-75
2022/04/15 02:10:10;;;;;;;;;;;8.10;99.90;;;;;;4985446;28;20024;-75
2022/04/15 02:12:36;;;;;;;;;;;8.10;99.90;;;;;;4979344;28;19926;-75
2022/04/15 02:15:05;;;;;;;;;;;8.00;99.90;;;;;;5000605;28;20020;-77
2022/04/15 02:17:32;;;;;;;;;;;8.00;99.90;;;;;;4981500;28;19930;-78
2022/04/15 02:19:58;;;;;;;;;;;8.00;99.90;;;;;;4992355;28;19925;-75
2022/04/15 02:22:25;;;;;;;;;;;8.00;99.90;;;;;;4983302;28;19936;-76
2022/04/15 02:24:52;;;;;;;;;;;7.90;99.90;;;;;;4994290;28;19934;-76
2022/04/15 02:27:18;;;;;;;;;;;7.90;99.90;;;;;;4978750;28;20376;-76
2022/04/15 02:29:45;;;;;;;;;;;7.80;99.90;;;;;;4987389;28;19926;-75
2022/04/15 02:32:13;;;;;;;;;;;7.70;99.90;;;;;;4985613;28;19933;-75
2022/04/15 02:34:40;;;;;;;;;;;7.70;99.90;;;;;;4997533;28;19930;-76
2022/04/15 02:37:07;;;;;;;;;;;7.70;99.90;;;;;;5024578;28;20439;-76
2022/04/15 02:39:33;;;;;;;;;;;7.70;99.90;;;;;;4999494;28;19926;-75
2022/04/15 02:42:00;;;;;;;;;;;7.70;99.90;;;;;;4981424;28;19948;-76
2022/04/15 02:44:27;;;;;;;;;;;7.70;99.90;;;;;;4988899;28;19952;-76
2022/04/15 02:46:57;;;;;;;;;;;7.70;99.90;;;;;;5022108;28;19940;-76
2022/04/15 02:49:26;;;;;;;;;;;7.70;99.90;;;;;;5009692;28;19971;-76
2022/04/15 02:51:54;;;;;;;;;;;7.60;99.90;;;;;;5074007;28;19965;-76
2022/04/15 02:54:20;;;;;;;;;;;7.60;99.90;;;;;;5042077;28;20344;-77
2022/04/15 02:56:47;;;;;;;;;;;7.50;99.90;;;;;;4994503;28;20312;-76
2022/04/15 02:59:16;;;;;;;;;;;7.40;99.90;;;;;;4981577;28;20359;-76
2022/04/15 03:01:43;;;;;;;;;;;7.40;99.90;;;;;;4989581;28;20004;-77
2022/04/15 03:04:10;;;;;;;;;;;7.40;99.90;;;;;;5046135;28;20376;-77
2022/04/15 03:06:38;;;;;;;;;;;7.40;99.90;;;;;;4988888;28;20061;-76
2022/04/15 03:09:05;;;;;;;;;;;7.30;99.90;;;;;;4999142;28;19926;-76
2022/04/15 03:11:32;;;;;;;;;;;7.30;99.90;;;;;;4983778;28;20012;-76
2022/04/15 03:13:59;;;;;;;;;;;7.30;99.90;;;;;;4995594;28;19933;-75
2022/04/15 03:16:25;;;;;;;;;;;7.20;99.90;;;;;;4974754;28;19930;-76
2022/04/15 03:18:52;;;;;;;;;;;7.20;99.90;;;;;;5006109;28;19965;-76
2022/04/15 03:21:18;;;;;;;;;;;7.10;99.90;;;;;;4989362;28;20024;-76
2022/04/15 03:23:47;;;;;;;;;;;7.10;99.90;;;;;;4984748;28;20020;-76
2022/04/15 03:26:13;;;;;;;;;;;7.10;99.90;;;;;;4999311;28;19934;-76
2022/04/15 03:28:40;;;;;;;;;;;7.00;99.90;;;;;;4991588;28;19932;-76
2022/04/15 03:31:09;;;;;;;;;;;7.00;99.90;;;;;;5017121;28;19925;-76
2022/04/15 03:33:35;;;;;;;;;;;7.00;99.90;;;;;;5011212;28;19993;-76
2022/04/15 03:36:05;;;;;;;;;;;7.00;99.90;;;;;;5001988;28;19926;-75
2022/04/15 03:38:31;;;;;;;;;;;6.90;99.90;;;;;;5015977;28;19926;-76
2022/04/15 03:40:59;;;;;;;;;;;6.80;99.90;;;;;;4994818;28;19931;-76
2022/04/15 03:43:26;;;;;;;;;;;6.80;99.90;;;;;;5016877;28;19925;-76
2022/04/15 03:45:53;;;;;;;;;;;6.80;99.90;;;;;;4998897;28;19931;-76
2022/04/15 03:48:20;;;;;;;;;;;6.70;99.90;;;;;;5008614;28;20470;-76
2022/04/15 03:50:46;;;;;;;;;;;6.70;99.90;;;;;;5006693;28;20403;-76
2022/04/15 03:53:13;;;;;;;;;;;6.70;99.90;;;;;;5004190;28;19939;-76
2022/04/15 03:55:40;;;;;;;;;;;6.70;99.90;;;;;;4988474;28;20024;-77
2022/04/15 03:58:08;;;;;;;;;;;6.70;99.90;;;;;;5026861;28;20025;-78
2022/04/15 04:00:34;;;;;;;;;;;6.60;99.90;;;;;;5034959;28;19939;-79
2022/04/15 04:03:01;;;;;;;;;;;6.50;99.90;;;;;;4995648;28;19926;-76
2022/04/15 04:05:28;;;;;;;;;;;6.50;99.90;;;;;;5064170;28;20024;-75
2022/04/15 04:07:55;;;;;;;;;;;6.50;99.90;;;;;;4994398;28;19932;-76
2022/04/15 04:10:21;;;;;;;;;;;6.40;99.90;;;;;;4991219;28;20008;-76
2022/04/15 04:12:49;;;;;;;;;;;6.40;99.90;;;;;;4993622;28;20368;-76
2022/04/15 04:15:17;;;;;;;;;;;6.40;99.90;;;;;;4995371;28;20270;-76
2022/04/15 04:17:44;;;;;;;;;;;6.30;99.90;;;;;;4999977;28;20276;-76
2022/04/15 04:20:12;;;;;;;;;;;6.30;99.90;;;;;;4995646;28;20363;-76
2022/04/15 04:22:40;;;;;;;;;;;6.30;99.90;;;;;;4993678;28;19926;-77
2022/04/15 04:25:08;;;;;;;;;;;6.30;99.90;;;;;;5009704;28;19933;-75
2022/04/15 04:27:35;;;;;;;;;;;6.30;99.90;;;;;;5015563;28;19930;-75
2022/04/15 04:30:02;;;;;;;;;;;6.30;99.90;;;;;;5006321;28;20016;-76
2022/04/15 04:32:30;;;;;;;;;;;6.30;99.90;;;;;;4986706;28;20347;-75
2022/04/15 04:34:57;;;;;;;;;;;6.30;99.90;;;;;;4987102;28;20389;-75
2022/04/15 04:37:23;;;;;;;;;;;6.30;99.90;;;;;;4998918;28;19936;-79
2022/04/15 04:39:50;;;;;;;;;;;6.20;99.90;;;;;;5036391;28;19932;-75
2022/04/15 04:42:18;;;;;;;;;;;6.20;99.90;;;;;;5018304;28;20412;-75
2022/04/15 04:44:45;;;;;;;;;;;6.10;99.90;;;;;;4990128;28;19941;-75
2022/04/15 04:47:12;;;;;;;;;;;6.00;99.90;;;;;;4995394;28;20564;-74
2022/04/15 04:49:40;;;;;;;;;;;6.00;99.90;;;;;;5018957;28;19926;-75
2022/04/15 04:52:07;;;;;;;;;;;6.00;99.90;;;;;;5007094;28;19926;-74
2022/04/15 04:54:35;;;;;;;;;;;6.00;99.90;;;;;;4989830;28;19926;-76
2022/04/15 04:57:01;;;;;;;;;;;6.00;99.90;;;;;;5027832;28;19940;-75
2022/04/15 04:59:29;;;;;;;;;;;6.00;99.90;;;;;;5002650;28;19934;-75
2022/04/15 05:01:56;;;;;;;;;;;6.00;99.90;;;;;;4996014;28;20266;-74
2022/04/15 05:04:22;;;;;;;;;;;6.00;99.90;;;;;;5025707;28;19926;-75
2022/04/15 05:06:51;;;;;;;;;;;6.00;99.90;;;;;;5006438;28;19928;-75
2022/04/15 05:09:18;;;;;;;;;;;6.00;99.90;;;;;;4990902;28;19946;-76
2022/04/15 05:11:45;;;;;;;;;;;6.00;99.90;;;;;;5006861;28;20004;-77
2022/04/15 05:14:11;;;;;;;;;;;6.00;99.90;;;;;;4982802;28;19937;-77
2022/04/15 05:16:40;;;;;;;;;;;6.00;99.90;;;;;;5001503;28;19926;-76
2022/04/15 05:19:07;;;;;;;;;;;6.00;99.90;;;;;;5009382;28;19932;-77
2022/04/15 05:21:34;;;;;;;;;;;6.00;99.90;;;;;;5012841;28;19973;-76
2022/04/15 05:24:03;;;;;;;;;;;5.90;99.90;;;;;;4985654;28;19926;-76
2022/04/15 05:26:33;;;;;;;;;;;6.00;99.90;;;;;;5026333;28;19930;-76
2022/04/15 05:29:00;;;;;;;;;;;6.00;99.90;;;;;;5040215;28;19925;-76
2022/04/15 05:31:27;;;;;;;;;;;6.10;99.90;;;;;;5001814;28;20013;-76
2022/04/15 05:33:56;;;;;;;;;;;6.10;99.90;;;;;;4999672;28;19926;-78
2022/04/15 05:36:23;;;;;;;;;;;6.10;99.90;;;;;;5045127;28;19932;-76
2022/04/15 05:38:49;;;;;;;;;;;6.10;99.90;;;;;;5002384;28;19936;-76
2022/04/15 05:41:17;;;;;;;;;;;6.10;99.90;;;;;;4993537;28;20012;-76
2022/04/15 05:43:44;;;;;;;;;;;6.10;99.90;;;;;;5000955;28;19937;-76
2022/04/15 05:46:11;;;;;;;;;;;6.20;99.90;;;;;;4987580;28;20029;-76
2022/04/15 05:48:38;;;;;;;;;;;6.30;99.90;;;;;;5009445;28;19926;-76
2022/04/15 05:51:07;;;;;;;;;;;6.30;99.90;;;;;;4981630;28;19926;-75
2022/04/15 05:53:38;;;;;;;;;;;6.40;99.90;;;;;;5006014;28;20385;-75
2022/04/15 05:56:08;;;;;;;;;;;6.40;99.90;;;;;;5001674;28;20389;-76
2022/04/15 05:58:36;;;;;;;;;;;6.60;99.90;;;;;;4983226;28;19926;-76
2022/04/15 06:01:05;;;;;;;;;;;6.60;99.90;;;;;;4980126;28;19926;-75
2022/04/15 06:03:32;;;;;;;;;;;6.60;99.90;;;;;;5010089;28;20385;-76
2022/04/15 06:06:02;;;;;;;;;;;6.70;99.90;;;;;;5011563;28;19932;-78
2022/04/15 06:08:29;;;;;;;;;;;6.70;99.90;;;;;;5012838;28;19998;-76
2022/04/15 06:10:56;;;;;;;;;;;6.80;99.90;;;;;;5028184;28;19933;-76
2022/04/15 06:13:25;;;;;;;;;;;6.90;99.90;;;;;;4989209;28;20004;-76
2022/04/15 06:15:57;;;;;;;;;;;7.00;99.90;;;;;;4993934;28;20062;-76
2022/04/15 06:18:24;;;;;;;;;;;7.10;99.90;;;;;;5012327;28;19930;-78
2022/04/15 06:20:51;;;;;;;;;;;7.30;99.90;;;;;;4996369;28;19926;-79
2022/04/15 06:23:18;;;;;;;;;;;7.40;99.90;;;;;;5011632;28;20029;-78
2022/04/15 06:25:45;;;;;;;;;;;7.50;99.90;;;;;;5005529;28;19926;-77
2022/04/15 06:28:12;;;;;;;;;;;7.60;99.90;;;;;;5007534;28;20182;-77
2022/04/15 06:30:45;;;;;;;;;;;7.70;99.90;;;;;;4999449;28;20023;-79
2022/04/15 06:33:15;;;;;;;;;;;7.90;99.90;;;;;;4994660;28;20349;-77
2022/04/15 06:35:42;;;;;;;;;;;8.10;99.90;;;;;;4989241;28;19933;-78
2022/04/15 06:38:09;;;;;;;;;;;8.30;99.90;;;;;;4992876;28;20025;-78
2022/04/15 06:40:40;;;;;;;;;;;8.40;99.90;;;;;;4995200;28;19932;-77
2022/04/15 06:43:08;;;;;;;;;;;8.60;99.90;;;;;;4995059;28;20003;-79
2022/04/15 06:45:35;;;;;;;;;;;8.80;99.90;;;;;;4978606;28;20013;-79
2022/04/15 06:48:02;;;;;;;;;;;8.80;99.90;;;;;;5001137;28;20393;-81
2022/04/15 06:50:33;;;;;;;;;;;8.80;99.90;;;;;;4985394;28;19940;-78
2022/04/15 06:52:59;;;;;;;;;;;8.90;99.90;;;;;;5001282;28;20025;-79
2022/04/15 06:55:29;;;;;;;;;;;9.00;99.90;;;;;;4984583;28;19929;-80
2022/04/15 06:57:56;;;;;;;;;;;9.10;99.90;;;;;;4990296;28;19933;-78
2022/04/15 07:00:23;;;;;;;;;;;9.40;99.90;;;;;;5007701;28;20407;-79
2022/04/15 07:02:49;;;;;;;;;;;9.60;99.90;;;;;;4986299;28;19924;-78
2022/04/15 07:05:16;;;;;;;;;;;9.60;99.90;;;;;;5008061;28;20012;-84
2022/04/15 07:07:44;;;;;;;;;;;9.70;99.90;;;;;;4994114;28;19928;-85
2022/04/15 07:10:12;;;;;;;;;;;9.80;99.90;;;;;;5033280;28;19985;-85
2022/04/15 07:12:39;;;;;;;;;;;9.90;99.90;;;;;;5044037;28;20241;-77
2022/04/15 07:15:06;;;;;;;;;;;10.10;99.90;;;;;;4994887;28;19926;-78
2022/04/15 07:17:33;;;;;;;;;;;10.30;99.90;;;;;;4980869;28;19934;-80
2022/04/15 07:20:00;;;;;;;;;;;10.40;99.90;;;;;;4989556;28;19926;-80
2022/04/15 07:22:26;;;;;;;;;;;10.70;99.90;;;;;;4981169;28;20017;-81
2022/04/15 07:24:54;;;;;;;;;;;11.80;99.90;;;;;;4992392;28;20393;-76
2022/04/15 07:27:21;;;;;;;;;;;12.90;99.90;;;;;;4976822;28;19926;-73
2022/04/15 07:29:48;;;;;;;;;;;13.70;99.90;;;;;;4979109;28;20378;-76
2022/04/15 07:32:19;;;;;;;;;;;14.40;99.90;;;;;;4977734;28;20389;-76
2022/04/15 07:34:46;;;;;;;;;;;14.80;99.90;;;;;;5011349;28;19933;-76
2022/04/15 07:37:13;;;;;;;;;;;15.30;98.80;;;;;;5007672;28;19934;-76
2022/04/15 07:39:40;;;;;;;;;;;17.40;94.80;;;;;;4986760;28;20399;-76
2022/04/15 07:42:08;;;;;;;;;;;18.20;80.60;;;;;;4980075;28;19980;-76
2022/04/15 07:44:34;;;;;;;;;;;18.40;76.80;;;;;;4980936;28;19934;-75
2022/04/15 07:47:01;;;;;;;;;;;18.30;76.20;;;;;;4982014;28;19926;-77
2022/04/15 07:49:28;;;;;;;;;;;19.30;67.40;;;;;;4987344;28;20304;-81
2022/04/15 07:51:55;;;;;;;;;;;19.40;66.70;;;;;;5032211;28;19930;-79
2022/04/15 07:54:21;;;;;;;;;;;19.10;62.60;;;;;;4984192;28;19932;-78
2022/04/15 07:56:48;;;;;;;;;;;19.90;61.00;;;;;;4986690;28;19980;-78
2022/04/15 07:59:16;;;;;;;;;;;19.40;56.50;;;;;;4985403;28;19926;-75
2022/04/15 08:01:43;;;;;;;;;;;19.20;60.80;;;;;;4983000;28;19930;-76
2022/04/15 08:04:09;;;;;;;;;;;17.70;63.70;;;;;;4979779;28;20016;-76
2022/04/15 08:06:37;;;;;;;;;;;17.60;67.30;;;;;;4986418;28;20390;-76
2022/04/15 08:09:04;;;;;;;;;;;16.90;69.20;;;;;;4988825;28;19926;-76
2022/04/15 08:11:31;;;;;;;;;;;16.90;69.00;;;;;;5000966;28;19925;-76
2022/04/15 08:13:57;;;;;;;;;;;17.30;70.90;;;;;;5005799;28;19941;-76
2022/04/15 08:16:26;;;;;;;;;;;18.00;66.20;;;;;;4990478;28;19941;-76
2022/04/15 08:18:55;;;;;;;;;;;17.90;67.80;;;;;;4985110;28;19930;-77
2022/04/15 08:21:22;;;;;;;;;;;18.30;66.60;;;;;;4987234;28;19926;-77
2022/04/15 08:23:50;;;;;;;;;;;17.70;68.20;;;;;;4990015;28;19939;-76
2022/04/15 08:26:17;;;;;;;;;;;16.50;72.40;;;;;;4990828;28;19926;-77
2022/04/15 08:28:44;;;;;;;;;;;15.80;72.70;;;;;;4988383;28;19933;-78
2022/04/15 08:31:11;;;;;;;;;;;16.70;75.50;;;;;;4990701;28;20012;-76
2022/04/15 08:33:40;;;;;;;;;;;17.60;68.50;;;;;;4984325;28;19955;-76
2022/04/15 08:36:07;;;;;;;;;;;17.40;69.10;;;;;;5008176;28;19937;-78
2022/04/15 08:38:34;;;;;;;;;;;17.10;69.40;;;;;;5003053;28;20441;-74
2022/04/15 08:41:01;;;;;;;;;;;17.00;70.70;;;;;;4987592;28;19926;-74
2022/04/15 08:43:29;;;;;;;;;;;17.10;70.30;;;;;;5007676;28;20336;-75
2022/04/15 08:45:56;;;;;;;;;;;17.30;71.30;;;;;;4974997;28;19925;-74
2022/04/15 08:48:24;;;;;;;;;;;18.10;67.50;;;;;;4982907;28;19926;-73
2022/04/15 08:50:52;;;;;;;;;;;17.40;66.80;;;;;;4984890;28;19930;-72
2022/04/15 08:53:20;;;;;;;;;;;17.80;66.70;;;;;;4978525;28;20415;-73
2022/04/15 08:55:47;;;;;;;;;;;18.70;66.10;;;;;;4974981;28;19979;-70
2022/04/15 08:58:13;;;;;;;;;;;18.70;59.70;;;;;;4978120;28;19987;-71
2022/04/15 09:00:40;;;;;;;;;;;17.60;64.80;;;;;;4988901;28;20012;-73
2022/04/15 09:03:07;;;;;;;;;;;17.10;68.70;;;;;;4985345;28;19986;-72
2022/04/15 09:05:34;;;;;;;;;;;17.80;69.40;;;;;;4980344;28;19927;-76
2022/04/15 09:08:06;;;;;;;;;;;17.80;66.40;;;;;;4979121;28;20300;-75
2022/04/15 09:10:34;;;;;;;;;;;18.90;61.60;;;;;;4981383;28;20400;-76
2022/04/15 09:13:01;;;;;;;;;;;18.00;65.80;;;;;;4979545;28;20407;-75
2022/04/15 09:15:27;;;;;;;;;;;17.90;66.00;;;;;;4979465;28;19930;-76
2022/04/15 09:18:00;;;;;;;;;;;17.60;66.40;;;;;;4981161;28;19987;-75
2022/04/15 09:20:30;;;;;;;;;;;17.60;67.30;;;;;;4988689;28;19926;-74
2022/04/15 09:22:57;;;;;;;;;;;17.20;67.70;;;;;;4979941;28;19979;-75
2022/04/15 09:25:27;;;;;;;;;;;18.70;63.70;;;;;;4990379;28;19934;-75
2022/04/15 09:27:55;;;;;;;;;;;18.10;63.90;;;;;;4986229;28;19934;-74
2022/04/15 09:30:32;;;;;;;;;;;17.50;63.90;;;;;;4979579;28;19926;-75
2022/04/15 09:32:59;;;;;;;;;;;17.30;65.40;;;;;;4983064;28;20397;-80
2022/04/15 09:35:26;;;;;;;;;;;17.30;68.20;;;;;;4986552;28;20299;-80
2022/04/15 09:37:53;;;;;;;;;;;17.30;69.40;;;;;;4989957;28;19930;-79
2022/04/15 09:40:22;;;;;;;;;;;18.70;64.70;;;;;;4988904;28;19926;-77
2022/04/15 09:42:51;;;;;;;;;;;18.40;66.70;;;;;;4979394;28;19925;-75
2022/04/15 09:45:18;;;;;;;;;;;17.90;65.10;;;;;;4980767;28;19988;-72
2022/04/15 09:47:50;;;;;;;;;;;16.60;68.00;;;;;;4983084;28;19925;-74
2022/04/15 09:50:27;;;;;;;;;;;15.40;74.80;;;;;;4972325;28;19973;-75
2022/04/15 09:52:54;;;;;;;;;;;15.50;77.00;;;;;;4984187;28;19926;-75
2022/04/15 09:55:23;;;;;;;;;;;16.10;76.00;;;;;;4981685;28;19926;-74
2022/04/15 09:57:52;;;;;;;;;;;18.20;70.20;;;;;;4983288;28;20277;-73
2022/04/15 10:00:19;;;;;;;;;;;17.00;72.60;;;;;;4984291;28;20344;-74
2022/04/15 10:02:47;;;;;;;;;;;16.60;75.80;;;;;;4975947;28;19925;-72
2022/04/15 10:05:15;;;;;;;;;;;15.80;75.40;;;;;;4973210;28;19936;-72
2022/04/15 10:07:42;;;;;;;;;;;15.10;78.10;;;;;;4976816;28;19925;-74
2022/04/15 10:10:09;;;;;;;;;;;15.20;77.60;;;;;;4982933;28;20010;-74
2022/04/15 10:12:39;;;;;;;;;;;15.00;81.40;;;;;;4971695;28;19969;-73
2022/04/15 10:15:10;;;;;;;;;;;15.40;81.10;;;;;;4972693;28;20000;-73
2022/04/15 10:17:40;;;;;;;;;;;15.60;83.60;;;;;;4975073;28;20411;-73
2022/04/15 10:20:07;;;;;;;;;;;15.30;81.80;;;;;;4972081;28;19930;-74
2022/04/15 10:22:36;;;;;;;;;;;15.10;83.80;;;;;;4975611;28;19926;-75
2022/04/15 10:25:03;;;;;;;;;;;15.10;84.70;;;;;;4968049;28;19926;-73
2022/04/15 10:27:31;;;;;;;;;;;15.10;86.20;;;;;;4972749;28;20013;-75
2022/04/15 10:30:03;;;;;;;;;;;14.80;84.40;;;;;;4974532;28;19927;-75
2022/04/15 10:32:47;;;;;;;;;;;15.20;86.30;;;;;;4978059;28;19936;-75
2022/04/15 10:35:22;;;;;;;;;;;15.00;84.10;;;;;;4980689;28;20403;-74
2022/04/15 10:37:54;;;;;;;;;;;14.90;85.90;;;;;;4976114;28;19926;-78
2022/04/15 10:40:25;;;;;;;;;;;15.00;84.30;;;;;;4982155;28;19955;-77
2022/04/15 10:42:52;;;;;;;;;;;15.10;83.80;;;;;;4975773;28;19926;-77
2022/04/15 10:45:28;;;;;;;;;;;14.90;85.20;;;;;;4976173;28;19934;-77
2022/04/15 10:47:57;;;;;;;;;;;15.10;85.90;;;;;;4975855;28;19948;-78
2022/04/15 10:50:26;;;;;;;;;;;15.30;83.50;;;;;;4983791;28;19926;-75
2022/04/15 10:52:53;;;;;;;;;;;15.10;82.20;;;;;;4977090;28;19937;-75
2022/04/15 10:55:19;;;;;;;;;;;15.20;85.70;;;;;;4970535;28;19926;-76
2022/04/15 10:57:48;;;;;;;;;;;14.70;83.10;;;;;;4974891;28;20402;-75
2022/04/15 11:03:02;;;;;;;;;;;15.30;85.30;;;;;;5012277;28;19931;-76
2022/04/15 11:05:33;;;;;;;;;;;14.90;86.80;;;;;;4982417;28;19925;-76
2022/04/15 11:08:04;;;;;;;;;;;15.00;85.20;;;;;;4975605;28;20020;-76
2022/04/15 11:10:44;;;;;;;;;;;15.20;85.70;;;;;;4976158;28;20403;-77
2022/04/15 11:13:11;;;;;;;;;;;15.00;86.40;;;;;;4977182;28;19926;-76
2022/04/15 11:15:54;;;;;;;;;;;14.90;83.80;;;;;;4977583;28;20421;-76
2022/04/15 11:18:24;;;;;;;;;;;15.10;84.80;;;;;;4975893;28;19941;-76
2022/04/15 11:20:51;;;;;;;;;;;15.00;84.70;;;;;;4976838;28;19979;-76
2022/04/15 11:23:18;;;;;;;;;;;14.90;83.80;;;;;;4973497;28;19933;-76
2022/04/15 11:25:46;;;;;;;;;;;14.90;81.70;;;;;;4974993;28;20440;-77
2022/04/15 11:28:13;;;;;;;;;;;15.10;78.20;;;;;;4995448;28;19934;-75
2022/04/15 11:30:39;;;;;;;;;;;15.10;79.40;;;;;;4984122;28;19926;-75
2022/04/15 11:33:06;;;;;;;;;;;15.30;84.10;;;;;;4977305;28;19930;-81
2022/04/15 11:35:35;;;;;;;;;;;15.30;82.80;;;;;;4981275;28;19932;-75
2022/04/15 11:38:05;;;;;;;;;;;15.30;81.30;;;;;;4979579;28;19926;-76
2022/04/15 11:40:35;;;;;;;;;;;15.50;79.40;;;;;;4998445;28;19926;-76
2022/04/15 11:43:01;;;;;;;;;;;15.50;77.80;;;;;;4976901;28;19926;-76
2022/04/15 11:45:32;;;;;;;;;;;15.30;79.80;;;;;;4981530;28;19944;-76
2022/04/15 11:48:13;;;;;;;;;;;15.30;80.50;;;;;;4984754;28;19933;-79
2022/04/15 11:50:41;;;;;;;;;;;15.30;80.40;;;;;;4983174;28;20050;-77
2022/04/15 11:53:08;;;;;;;;;;;15.60;80.30;;;;;;4983785;28;19932;-77
2022/04/15 11:55:48;;;;;;;;;;;15.30;80.20;;;;;;4974929;28;19934;-78
2022/04/15 11:58:15;;;;;;;;;;;15.60;81.20;;;;;;4980913;28;20009;-75
2022/04/15 12:00:42;;;;;;;;;;;15.60;77.50;;;;;;4980092;28;19979;-77
2022/04/15 12:03:12;;;;;;;;;;;15.70;76.90;;;;;;4977337;28;19926;-74
2022/04/15 12:05:38;;;;;;;;;;;15.70;80.00;;;;;;4971491;28;19930;-72
2022/04/15 12:08:08;;;;;;;;;;;15.80;76.30;;;;;;4978280;28;19926;-75
2022/04/15 12:10:38;;;;;;;;;;;15.70;72.90;;;;;;4977017;28;20362;-73
2022/04/15 12:13:05;;;;;;;;;;;15.50;75.00;;;;;;4981497;28;20404;-67
2022/04/15 12:15:32;;;;;;;;;;;15.60;78.00;;;;;;4989240;28;19926;-74
2022/04/15 12:17:59;;;;;;;;;;;15.70;70.80;;;;;;4985169;28;19926;-74
2022/04/15 12:20:33;;;;;;;;;;;15.50;72.60;;;;;;5004114;28;19940;-75
2022/04/15 12:22:59;;;;;;;;;;;15.70;72.30;;;;;;4976715;28;19934;-74
2022/04/15 12:26:05;;;;;;;;;;;15.70;77.00;;;;;;4995039;28;20316;-74
2022/04/15 12:30:55;;;;;;;;;;;15.90;76.20;;;;;;4987035;28;20032;-74
2022/04/15 12:33:23;;;;;;;;;;;15.60;75.30;;;;;;4977179;28;19930;-74
2022/04/15 12:35:59;;;;;;;;;;;15.70;74.70;;;;;;4975199;28;20242;-74
2022/04/15 12:38:26;;;;;;;;;;;15.90;70.70;;;;;;4971202;28;19934;-74
2022/04/15 12:40:59;;;;;;;;;;;15.80;71.90;;;;;;4977407;28;20320;-75
2022/04/15 12:43:25;;;;;;;;;;;15.60;68.60;;;;;;4986086;28;20578;-74
2022/04/15 12:45:53;;;;;;;;;;;15.50;72.20;;;;;;4976646;28;20337;-74
2022/04/15 12:48:20;;;;;;;;;;;15.70;74.60;;;;;;4980195;28;19933;-74
2022/04/15 12:50:48;;;;;;;;;;;15.90;73.10;;;;;;4974771;28;19925;-75
2022/04/15 12:53:16;;;;;;;;;;;15.90;70.90;;;;;;4979689;28;19926;-75
2022/04/15 12:55:43;;;;;;;;;;;16.20;71.90;;;;;;4973954;28;20390;-76
2022/04/15 12:58:18;;;;;;;;;;;16.10;72.10;;;;;;4980030;28;19971;-75
2022/04/15 13:00:44;;;;;;;;;;;16.10;71.70;;;;;;4987798;28;19934;-75
2022/04/15 13:03:17;;;;;;;;;;;16.00;69.40;;;;;;4971522;28;20366;-75
2022/04/15 13:05:44;;;;;;;;;;;15.70;69.00;;;;;;4979307;28;19926;-74
2022/04/15 13:08:11;;;;;;;;;;;15.90;68.00;;;;;;4979618;28;20025;-75
2022/04/15 13:10:38;;;;;;;;;;;15.80;67.50;;;;;;4978435;28;20059;-74
2022/04/15 13:13:04;;;;;;;;;;;16.00;71.80;;;;;;4977862;28;20036;-74
2022/04/15 13:15:33;;;;;;;;;;;16.00;67.90;;;;;;4976303;28;19998;-74
2022/04/15 13:18:00;;;;;;;;;;;16.10;69.00;;;;;;4978394;28;20396;-75
2022/04/15 13:20:26;;;;;;;;;;;16.10;65.00;;;;;;4985418;28;20311;-75
2022/04/15 13:22:54;;;;;;;;;;;16.10;65.70;;;;;;4975109;28;19977;-79
2022/04/15 13:25:22;;;;;;;;;;;16.00;67.30;;;;;;4971837;28;20447;-75
2022/04/15 13:27:49;;;;;;;;;;;15.90;65.20;;;;;;4974066;28;19926;-74
2022/04/15 13:30:16;;;;;;;;;;;16.00;67.00;;;;;;4980978;28;19933;-72
2022/04/15 13:32:44;;;;;;;;;;;16.30;64.20;;;;;;4978361;28;19999;-72
2022/04/15 13:35:11;;;;;;;;;;;16.30;66.60;;;;;;4976641;28;19941;-72
2022/04/15 13:37:39;;;;;;;;;;;16.40;67.20;;;;;;4981878;28;19926;-72
2022/04/15 13:40:06;;;;;;;;;;;16.30;68.70;;;;;;4977669;28;19989;-70
2022/04/15 13:42:33;;;;;;;;;;;16.50;66.70;;;;;;4975083;28;19930;-73
2022/04/15 13:44:59;;;;;;;;;;;16.60;62.80;;;;;;4977320;28;19933;-71
2022/04/15 13:47:26;;;;;;;;;;;16.70;63.60;;;;;;4970126;28;19933;-71
2022/04/15 13:49:54;;;;;;;;;;;16.30;64.70;;;;;;4977914;28;20380;-72
2022/04/15 13:57:49;;;;;;;;;;;16.70;63.90;;;;;;4997993;28;19938;-73
2022/04/15 14:00:16;;;;;;;;;;;16.80;62.20;;;;;;4982899;28;19932;-72
2022/04/15 14:02:45;;;;;;;;;;;16.30;62.60;;;;;;4973932;28;19977;-72
2022/04/15 14:05:13;;;;;;;;;;;16.50;64.50;;;;;;4982127;28;19933;-72
2022/04/15 14:07:40;;;;;;;;;;;16.50;64.10;;;;;;4981252;28;19933;-73
2022/04/15 14:10:07;;;;;;;;;;;16.40;66.20;;;;;;4979481;28;20016;-73
2022/04/15 14:12:36;;;;;;;;;;;16.40;66.40;;;;;;4982829;28;19953;-73
2022/04/15 14:15:02;;;;;;;;;;;16.50;65.30;;;;;;4977498;28;20430;-73
2022/04/15 14:17:29;;;;;;;;;;;16.40;64.70;;;;;;4979180;28;19926;-73
2022/04/15 14:19:56;;;;;;;;;;;16.60;64.90;;;;;;4979310;28;20036;-72
2022/04/15 14:22:24;;;;;;;;;;;16.60;62.90;;;;;;4979262;28;20312;-72
2022/04/15 14:24:50;;;;;;;;;;;16.60;65.00;;;;;;4975265;28;19930;-73
2022/04/15 14:27:17;;;;;;;;;;;16.60;64.40;;;;;;4976659;28;20215;-72
2022/04/15 14:29:44;;;;;;;;;;;16.70;65.80;;;;;;4991781;28;19926;-72
2022/04/15 14:32:11;;;;;;;;;;;16.60;67.40;;;;;;4981851;28;20407;-72
2022/04/15 14:34:38;;;;;;;;;;;16.50;65.90;;;;;;4974704;28;20001;-72
2022/04/15 14:37:05;;;;;;;;;;;16.40;65.30;;;;;;4976206;28;19933;-72
2022/04/15 14:39:33;;;;;;;;;;;16.70;65.60;;;;;;4989169;28;19956;-72